createdAt,value
2018-12-17T00:01:47.691Z,0.89
2018-12-17T00:04:16.742Z,1.08
2018-12-17T00:06:45.647Z,1.20
2018-12-17T00:09:14.777Z,1.27
2018-12-17T00:11:43.999Z,1.23
2018-12-17T00:14:12.880Z,0.72
2018-12-17T00:16:41.948Z,0.98
2018-12-17T00:19:11.864Z,1.02
2018-12-17T00:21:41.015Z,0.92
2018-12-17T00:24:09.935Z,0.99
2018-12-17T00:26:38.833Z,0.89
2018-12-17T00:29:07.881Z,0.80
2018-12-17T00:31:37.210Z,0.95
2018-12-17T00:34:06.173Z,1.15
2018-12-17T00:36:35.091Z,1.39
2018-12-17T00:39:07.183Z,1.28
2018-12-17T00:41:36.551Z,0.84
2018-12-17T00:44:05.805Z,0.98
2018-12-17T00:46:34.825Z,0.81
2018-12-17T00:49:03.770Z,0.80
2018-12-17T00:51:32.902Z,0.82
2018-12-17T00:54:01.922Z,0.85
2018-12-17T00:56:30.852Z,0.85
2018-12-17T00:58:59.812Z,0.88
2018-12-17T01:01:28.686Z,0.78
2018-12-17T01:03:57.599Z,0.83
2018-12-17T01:06:26.565Z,0.70
2018-12-17T01:08:55.515Z,0.98
2018-12-17T01:11:24.377Z,1.10
2018-12-17T01:13:53.418Z,0.88
2018-12-17T01:16:22.401Z,1.02
2018-12-17T01:18:51.433Z,0.90
2018-12-17T01:21:20.993Z,0.73
2018-12-17T01:23:50.426Z,0.70
2018-12-17T01:26:20.983Z,0.74
2018-12-17T01:28:50.292Z,0.79
2018-12-17T01:31:19.264Z,0.83
2018-12-17T01:33:48.806Z,0.79
2018-12-17T01:36:17.810Z,0.90
2018-12-17T01:38:46.859Z,0.95
2018-12-17T01:41:15.984Z,1.07
2018-12-17T01:43:45.242Z,0.87
2018-12-17T01:46:14.186Z,0.82
2018-12-17T01:48:43.880Z,0.81
2018-12-17T01:51:12.877Z,0.78
2018-12-17T01:53:41.777Z,1.20
2018-12-17T01:56:10.795Z,1.48
2018-12-17T01:58:39.727Z,1.53
2018-12-17T02:01:08.674Z,1.58
2018-12-17T02:03:37.675Z,1.08
2018-12-17T02:06:06.818Z,1.24
2018-12-17T02:08:35.959Z,1.31
2018-12-17T02:11:05.252Z,1.26
2018-12-17T02:13:34.287Z,1.32
2018-12-17T02:16:03.178Z,1.28
2018-12-17T02:18:32.194Z,1.30
2018-12-17T02:21:01.371Z,1.28
2018-12-17T02:23:30.570Z,1.32
2018-12-17T02:25:59.517Z,1.25
2018-12-17T02:28:28.467Z,1.36
2018-12-17T02:30:57.379Z,1.28
2018-12-17T02:33:26.605Z,1.25
2018-12-17T02:35:55.537Z,1.18
2018-12-17T02:38:24.527Z,1.21
2018-12-17T02:40:53.443Z,1.11
2018-12-17T02:43:22.423Z,1.17
2018-12-17T02:45:51.928Z,1.39
2018-12-17T02:48:20.850Z,1.23
2018-12-17T02:50:49.801Z,0.94
2018-12-17T02:53:18.670Z,1.01
2018-12-17T02:55:48.118Z,1.13
2018-12-17T02:58:17.092Z,0.95
2018-12-17T03:00:46.143Z,0.97
2018-12-17T03:03:15.148Z,0.96
2018-12-17T03:05:44.634Z,0.97
2018-12-17T03:08:13.646Z,0.99
2018-12-17T03:10:42.650Z,0.92
2018-12-17T03:13:11.949Z,0.96
2018-12-17T03:15:40.846Z,1.15
2018-12-17T03:18:09.721Z,0.97
2018-12-17T03:20:39.243Z,1.00
2018-12-17T03:23:08.539Z,1.19
2018-12-17T03:25:37.461Z,0.98
2018-12-17T03:28:06.643Z,1.03
2018-12-17T03:30:35.664Z,0.94
2018-12-17T03:33:04.617Z,0.95
2018-12-17T03:35:33.677Z,0.94
2018-12-17T03:38:02.591Z,1.13
2018-12-17T03:40:31.679Z,1.10
2018-12-17T03:43:00.601Z,1.29
2018-12-17T03:45:29.549Z,1.25
2018-12-17T03:47:58.528Z,1.14
2018-12-17T03:50:27.470Z,0.98
2018-12-17T03:52:56.538Z,1.21
2018-12-17T03:55:25.453Z,1.15
2018-12-17T03:57:54.712Z,1.20
2018-12-17T04:00:23.876Z,1.17
2018-12-17T04:02:53.102Z,1.17
2018-12-17T04:05:22.690Z,1.45
2018-12-17T04:07:51.607Z,1.26
2018-12-17T04:10:20.569Z,1.14
2018-12-17T04:12:49.786Z,1.38
2018-12-17T04:15:18.786Z,1.23
2018-12-17T04:17:47.711Z,1.30
2018-12-17T04:20:16.720Z,1.51
2018-12-17T04:22:45.645Z,1.47
2018-12-17T04:25:14.652Z,1.42
2018-12-17T04:27:43.731Z,1.49
2018-12-17T04:30:13.042Z,1.29
2018-12-17T04:32:42.020Z,1.33
2018-12-17T04:35:11.008Z,1.03
2018-12-17T04:37:40.425Z,1.10
2018-12-17T04:40:09.306Z,1.18
2018-12-17T04:42:38.282Z,1.02
2018-12-17T04:45:09.112Z,1.25
2018-12-17T04:47:37.999Z,1.24
2018-12-17T04:50:07.030Z,1.27
2018-12-17T04:52:35.970Z,1.24
2018-12-17T04:55:05.420Z,1.11
2018-12-17T04:57:34.491Z,1.03
2018-12-17T05:00:03.921Z,1.12
2018-12-17T05:02:32.900Z,1.08
2018-12-17T05:05:01.824Z,1.36
2018-12-17T05:07:31.068Z,1.36
2018-12-17T05:10:00.263Z,1.28
2018-12-17T05:12:33.567Z,1.18
2018-12-17T05:15:03.788Z,1.22
2018-12-17T05:17:32.926Z,1.32
2018-12-17T05:20:01.939Z,1.16
2018-12-17T05:22:31.259Z,1.18
2018-12-17T05:25:00.444Z,1.34
2018-12-17T05:27:29.867Z,1.20
2018-12-17T05:29:58.844Z,1.34
2018-12-17T05:32:27.718Z,1.23
2018-12-17T05:34:56.673Z,1.27
2018-12-17T05:37:25.922Z,1.28
2018-12-17T05:39:55.088Z,1.26
2018-12-17T05:42:23.964Z,1.35
2018-12-17T05:44:53.075Z,1.19
2018-12-17T05:47:22.127Z,1.17
2018-12-17T05:49:51.031Z,1.31
2018-12-17T05:52:20.294Z,1.25
2018-12-17T05:54:49.537Z,1.29
2018-12-17T05:57:18.522Z,1.24
2018-12-17T05:59:47.453Z,1.37
2018-12-17T06:02:16.439Z,1.38
2018-12-17T06:04:45.470Z,1.44
2018-12-17T06:07:14.340Z,1.33
2018-12-17T06:09:43.410Z,1.26
2018-12-17T06:12:12.387Z,1.29
2018-12-17T06:14:41.367Z,1.46
2018-12-17T06:17:10.327Z,1.42
2018-12-17T06:19:39.249Z,1.48
2018-12-17T06:22:08.230Z,1.52
2018-12-17T06:24:37.348Z,1.40
2018-12-17T06:27:06.257Z,1.38
2018-12-17T06:29:35.681Z,1.51
2018-12-17T06:32:04.777Z,1.46
2018-12-17T06:34:33.736Z,1.50
2018-12-17T06:37:02.714Z,1.52
2018-12-17T06:39:32.196Z,1.56
2018-12-17T06:42:01.140Z,1.41
2018-12-17T06:44:30.047Z,1.54
2018-12-17T06:46:59.015Z,1.64
2018-12-17T06:49:28.962Z,1.44
2018-12-17T06:51:58.172Z,1.58
2018-12-17T06:54:27.570Z,1.63
2018-12-17T06:56:56.814Z,1.72
2018-12-17T06:59:25.780Z,1.65
2018-12-17T07:01:54.867Z,1.68
2018-12-17T07:04:23.888Z,1.70
2018-12-17T07:06:52.906Z,1.71
2018-12-17T07:09:21.900Z,1.71
2018-12-17T07:11:50.899Z,1.78
2018-12-17T07:14:20.141Z,1.61
2018-12-17T07:16:49.165Z,1.59
2018-12-17T07:19:18.119Z,1.66
2018-12-17T07:21:47.095Z,1.75
2018-12-17T07:24:16.656Z,1.75
2018-12-17T07:26:45.603Z,1.80
2018-12-17T07:29:14.517Z,1.75
2018-12-17T07:31:43.524Z,1.74
2018-12-17T07:34:12.457Z,1.69
2018-12-17T07:36:41.385Z,1.72
2018-12-17T07:39:10.240Z,1.80
2018-12-17T07:41:39.359Z,1.77
2018-12-17T07:44:08.279Z,1.82
2018-12-17T07:46:37.309Z,1.88
2018-12-17T07:49:06.215Z,1.74
2018-12-17T07:51:35.254Z,1.79
2018-12-17T07:54:05.195Z,1.82
2018-12-17T07:56:34.841Z,1.92
2018-12-17T07:59:03.857Z,2.01
2018-12-17T08:01:32.885Z,1.94
2018-12-17T08:04:01.787Z,2.09
2018-12-17T08:06:30.745Z,1.94
2018-12-17T08:09:00.012Z,1.96
2018-12-17T08:11:29.163Z,2.06
2018-12-17T08:13:58.057Z,2.21
2018-12-17T08:16:27.279Z,2.05
2018-12-17T08:18:57.148Z,2.08
2018-12-17T08:21:26.477Z,2.18
2018-12-17T08:23:55.561Z,2.00
2018-12-17T08:26:24.717Z,2.21
2018-12-17T08:28:53.623Z,2.19
2018-12-17T08:31:22.644Z,2.14
2018-12-17T08:33:51.724Z,2.09
2018-12-17T08:36:20.652Z,2.26
2018-12-17T08:38:49.578Z,2.12
2018-12-17T08:41:18.424Z,2.11
2018-12-17T08:43:47.380Z,2.12
2018-12-17T08:46:16.377Z,2.19
2018-12-17T08:48:45.283Z,2.12
2018-12-17T08:51:15.014Z,2.12
2018-12-17T08:53:43.929Z,2.05
2018-12-17T08:56:13.226Z,2.06
2018-12-17T08:58:42.209Z,2.17
2018-12-17T09:01:11.094Z,2.02
2018-12-17T09:03:40.194Z,2.18
2018-12-17T09:06:09.218Z,2.23
2018-12-17T09:08:38.436Z,2.20
2018-12-17T09:11:07.435Z,2.24
2018-12-17T09:13:36.348Z,2.35
2018-12-17T09:16:05.271Z,2.29
2018-12-17T09:18:34.184Z,2.30
2018-12-17T09:21:03.799Z,2.26
2018-12-17T09:23:32.724Z,2.06
2018-12-17T09:26:01.680Z,2.21
2018-12-17T09:28:30.578Z,2.25
2018-12-17T09:30:59.526Z,2.32
2018-12-17T09:33:28.760Z,2.19
2018-12-17T09:35:57.985Z,2.15
2018-12-17T09:38:27.252Z,2.07
2018-12-17T09:40:56.207Z,2.12
2018-12-17T09:43:26.027Z,2.20
2018-12-17T09:45:55.206Z,2.28
2018-12-17T09:48:24.295Z,2.44
2018-12-17T09:50:53.288Z,2.47
2018-12-17T09:53:22.138Z,2.71
2018-12-17T09:55:51.975Z,2.65
2018-12-17T09:58:20.949Z,2.73
2018-12-17T10:00:50.229Z,2.61
2018-12-17T10:03:19.156Z,2.61
2018-12-17T10:05:48.099Z,2.73
2018-12-17T10:08:17.061Z,2.77
2018-12-17T10:10:45.989Z,2.65
2018-12-17T10:13:14.940Z,2.75
2018-12-17T10:15:43.881Z,2.74
2018-12-17T10:18:13.816Z,2.76
2018-12-17T10:20:42.867Z,2.78
2018-12-17T10:23:11.800Z,2.98
2018-12-17T10:28:19.936Z,3.03
2018-12-17T10:30:48.801Z,2.95
2018-12-17T10:33:17.772Z,2.97
2018-12-17T10:35:46.810Z,3.02
2018-12-17T10:38:15.754Z,3.09
2018-12-17T10:40:45.027Z,3.17
2018-12-17T10:43:14.346Z,3.19
2018-12-17T10:45:43.345Z,3.25
2018-12-17T10:48:13.488Z,3.40
2018-12-17T10:50:42.337Z,3.46
2018-12-17T10:53:11.259Z,3.45
2018-12-17T10:55:40.176Z,3.46
2018-12-17T10:58:09.158Z,3.66
2018-12-17T11:00:43.752Z,3.82
2018-12-17T11:03:17.187Z,3.86
2018-12-17T11:05:46.783Z,3.96
2018-12-17T11:08:15.966Z,4.04
2018-12-17T11:10:44.998Z,4.14
2018-12-17T11:13:13.892Z,3.89
2018-12-17T11:15:42.773Z,3.91
2018-12-17T11:18:11.694Z,3.96
2018-12-17T11:20:40.998Z,3.85
2018-12-17T11:23:10.914Z,3.89
2018-12-17T11:25:39.825Z,4.03
2018-12-17T11:28:08.870Z,3.95
2018-12-17T11:30:37.840Z,3.79
2018-12-17T11:33:06.871Z,3.92
2018-12-17T11:35:35.826Z,3.92
2018-12-17T11:38:04.856Z,3.82
2018-12-17T11:40:33.850Z,3.62
2018-12-17T11:43:02.774Z,3.64
2018-12-17T11:45:31.670Z,3.84
2018-12-17T11:48:00.732Z,3.80
2018-12-17T11:50:29.671Z,3.85
2018-12-17T11:52:58.636Z,3.68
2018-12-17T11:55:27.687Z,3.60
2018-12-17T11:58:15.220Z,3.60
2018-12-17T12:01:03.824Z,3.72
2018-12-17T12:03:36.614Z,3.61
2018-12-17T12:06:05.902Z,3.77
2018-12-17T12:08:34.880Z,3.82
2018-12-17T12:11:04.145Z,3.89
2018-12-17T12:13:33.046Z,3.93
2018-12-17T12:16:02.106Z,3.97
2018-12-17T12:18:31.115Z,3.82
2018-12-17T12:21:00.062Z,3.90
2018-12-17T12:23:29.126Z,3.90
2018-12-17T12:25:58.125Z,3.96
2018-12-17T12:28:27.012Z,4.13
2018-12-17T12:31:00.444Z,3.92
2018-12-17T12:33:27.508Z,3.88
2018-12-17T12:35:58.448Z,3.90
2018-12-17T12:38:34.068Z,4.16
2018-12-17T12:41:04.033Z,4.04
2018-12-17T12:43:33.401Z,4.00
2018-12-17T12:46:02.768Z,4.02
2018-12-17T12:48:32.360Z,3.99
2018-12-17T12:51:02.939Z,4.08
2018-12-17T12:53:32.011Z,4.08
2018-12-17T12:56:01.505Z,4.10
2018-12-17T12:58:30.605Z,3.97
2018-12-17T13:01:07.383Z,4.11
2018-12-17T13:03:32.476Z,4.28
2018-12-17T13:06:02.054Z,4.26
2018-12-17T13:08:32.231Z,4.23
2018-12-17T13:11:01.216Z,4.48
2018-12-17T13:13:30.166Z,4.31
2018-12-17T13:15:59.337Z,4.31
2018-12-17T13:18:29.580Z,4.41
2018-12-17T13:20:59.534Z,4.24
2018-12-17T13:23:28.447Z,4.41
2018-12-17T13:25:57.575Z,4.32
2018-12-17T13:28:26.538Z,4.52
2018-12-17T13:30:55.895Z,4.38
2018-12-17T13:33:25.540Z,4.26
2018-12-17T13:35:55.048Z,4.26
2018-12-17T13:38:24.660Z,4.31
2018-12-17T13:40:55.630Z,4.17
2018-12-17T13:43:24.789Z,4.24
2018-12-17T13:45:53.874Z,4.35
2018-12-17T13:48:23.165Z,4.30
2018-12-17T13:50:52.107Z,4.18
2018-12-17T13:53:26.913Z,4.18
2018-12-17T13:55:56.583Z,4.25
2018-12-17T13:58:27.375Z,4.18
2018-12-17T14:00:56.279Z,4.10
2018-12-17T14:03:25.174Z,4.13
2018-12-17T14:05:54.322Z,4.21
2018-12-17T14:08:23.347Z,4.18
2018-12-17T14:10:54.054Z,4.10
2018-12-17T14:13:23.436Z,4.20
2018-12-17T14:15:57.816Z,4.13
2018-12-17T14:18:32.810Z,4.12
2018-12-17T14:21:07.403Z,4.13
2018-12-17T14:23:36.983Z,4.16
2018-12-17T14:26:07.261Z,4.26
2018-12-17T14:28:36.853Z,4.14
2018-12-17T14:31:06.398Z,4.13
2018-12-17T14:33:35.771Z,4.14
2018-12-17T14:36:08.536Z,4.14
2018-12-17T14:38:39.675Z,4.21
2018-12-17T14:41:10.197Z,4.16
2018-12-17T14:43:40.401Z,4.18
2018-12-17T14:46:09.558Z,4.26
2018-12-17T14:48:39.346Z,4.20
2018-12-17T14:51:09.404Z,4.23
2018-12-17T14:53:38.806Z,4.22
2018-12-17T14:56:08.680Z,4.30
2018-12-17T14:58:44.256Z,4.29
2018-12-17T15:01:08.892Z,4.25
2018-12-17T15:03:38.282Z,4.34
2018-12-17T15:06:07.212Z,4.30
2018-12-17T15:08:36.094Z,4.26
2018-12-17T15:11:05.391Z,4.22
2018-12-17T15:13:34.318Z,4.23
2018-12-17T15:16:03.199Z,4.29
2018-12-17T15:18:32.042Z,4.28
2018-12-17T15:21:01.257Z,4.25
2018-12-17T15:23:30.147Z,4.23
2018-12-17T15:25:59.487Z,4.37
2018-12-17T15:28:28.645Z,4.47
2018-12-17T15:30:57.726Z,4.36
2018-12-17T15:33:26.625Z,4.31
2018-12-17T15:35:55.962Z,4.37
2018-12-17T15:38:24.990Z,4.50
2018-12-17T15:40:53.961Z,4.59
2018-12-17T15:43:22.974Z,4.52
2018-12-17T15:45:51.896Z,4.43
2018-12-17T15:48:21.115Z,4.38
2018-12-17T15:50:50.517Z,4.42
2018-12-17T15:53:19.412Z,4.46
2018-12-17T15:55:48.645Z,4.47
2018-12-17T15:58:17.579Z,4.43
2018-12-17T16:00:46.588Z,4.47
2018-12-17T16:03:15.646Z,4.62
2018-12-17T16:05:44.546Z,4.46
2018-12-17T16:08:13.425Z,4.57
2018-12-17T16:10:42.496Z,4.49
2018-12-17T16:13:11.411Z,4.47
2018-12-17T16:15:40.382Z,4.48
2018-12-17T16:18:09.354Z,4.62
2018-12-17T16:20:38.317Z,4.75
2018-12-17T16:23:07.255Z,4.52
2018-12-17T16:25:36.210Z,4.69
2018-12-17T16:28:05.214Z,4.65
2018-12-17T16:30:34.104Z,4.54
2018-12-17T16:33:03.071Z,4.47
2018-12-17T16:35:31.991Z,4.50
2018-12-17T16:38:01.377Z,4.69
2018-12-17T16:40:30.808Z,4.56
2018-12-17T16:43:00.272Z,4.47
2018-12-17T16:45:29.170Z,4.50
2018-12-17T16:47:58.316Z,4.72
2018-12-17T16:50:27.248Z,4.55
2018-12-17T16:52:56.502Z,4.63
2018-12-17T16:55:25.496Z,4.53
2018-12-17T16:57:54.555Z,4.63
2018-12-17T17:00:23.462Z,4.58
2018-12-17T17:02:52.953Z,4.53
2018-12-17T17:05:22.027Z,4.45
2018-12-17T17:07:50.973Z,4.43
2018-12-17T17:10:20.304Z,4.51
2018-12-17T17:12:49.261Z,4.43
2018-12-17T17:15:18.233Z,4.42
2018-12-17T17:17:47.267Z,4.40
2018-12-17T17:20:16.427Z,4.49
2018-12-17T17:22:45.348Z,4.67
2018-12-17T17:25:14.303Z,4.78
2018-12-17T17:27:43.156Z,4.63
2018-12-17T17:30:12.306Z,4.56
2018-12-17T17:32:41.242Z,4.50
2018-12-17T17:35:10.209Z,4.58
2018-12-17T17:37:39.162Z,4.50
2018-12-17T17:40:08.317Z,4.53
2018-12-17T17:42:37.257Z,4.64
2018-12-17T17:45:06.683Z,4.70
2018-12-17T17:47:35.728Z,4.70
2018-12-17T17:50:05.524Z,4.74
2018-12-17T17:52:34.459Z,4.67
2018-12-17T17:55:03.574Z,4.65
2018-12-17T17:57:32.510Z,4.78
2018-12-17T18:00:01.736Z,4.69
2018-12-17T18:02:31.103Z,4.74
2018-12-17T18:05:00.558Z,4.87
2018-12-17T18:07:29.533Z,4.82
2018-12-17T18:09:58.416Z,4.76
2018-12-17T18:12:27.571Z,4.82
2018-12-17T18:14:56.876Z,4.99
2018-12-17T18:17:26.133Z,4.97
2018-12-17T18:19:55.340Z,4.95
2018-12-17T18:22:24.240Z,5.10
2018-12-17T18:24:53.348Z,5.06
2018-12-17T18:27:22.758Z,5.20
2018-12-17T18:29:51.806Z,5.23
2018-12-17T18:32:25.948Z,5.31
2018-12-17T18:34:51.766Z,5.24
2018-12-17T18:37:20.610Z,5.29
2018-12-17T18:39:49.510Z,5.32
2018-12-17T18:42:19.138Z,5.41
2018-12-17T18:44:48.151Z,5.36
2018-12-17T18:47:17.027Z,5.39
2018-12-17T18:49:45.978Z,5.49
2018-12-17T18:52:14.869Z,5.60
2018-12-17T18:54:44.189Z,5.58
2018-12-17T18:57:13.119Z,5.52
2018-12-17T18:59:42.022Z,5.44
2018-12-17T19:02:11.168Z,5.58
2018-12-17T19:04:40.093Z,5.64
2018-12-17T19:07:09.188Z,5.62
2018-12-17T19:09:38.434Z,5.66
2018-12-17T19:12:08.831Z,5.62
2018-12-17T19:14:37.754Z,5.62
2018-12-17T19:17:06.646Z,5.74
2018-12-17T19:19:36.443Z,5.75
2018-12-17T19:22:05.607Z,5.82
2018-12-17T19:24:34.553Z,5.79
2018-12-17T19:27:03.506Z,5.74
2018-12-17T19:29:32.400Z,5.85
2018-12-17T19:32:02.618Z,5.82
2018-12-17T19:34:31.641Z,5.83
2018-12-17T19:37:00.569Z,5.78
2018-12-17T19:39:29.906Z,5.83
2018-12-17T19:41:58.811Z,5.76
2018-12-17T19:44:29.112Z,5.84
2018-12-17T19:46:58.013Z,5.72
2018-12-17T19:49:26.966Z,5.78
2018-12-17T19:51:55.842Z,5.71
2018-12-17T19:54:24.820Z,5.84
2018-12-17T19:56:53.709Z,5.87
2018-12-17T19:59:22.677Z,5.85
2018-12-17T20:01:51.611Z,5.81
2018-12-17T20:04:20.508Z,5.84
2018-12-17T20:06:49.484Z,5.89
2018-12-17T20:09:19.184Z,5.79
2018-12-17T20:11:48.181Z,5.83
2018-12-17T20:14:17.687Z,5.84
2018-12-17T20:16:46.692Z,5.90
2018-12-17T20:19:15.613Z,5.83
2018-12-17T20:21:44.633Z,5.84
2018-12-17T20:24:13.824Z,5.87
2018-12-17T20:26:42.895Z,5.88
2018-12-17T20:29:12.705Z,5.83
2018-12-17T20:31:41.838Z,5.84
2018-12-17T20:34:11.819Z,5.81
2018-12-17T20:36:41.440Z,5.79
2018-12-17T20:39:10.403Z,5.74
2018-12-17T20:41:39.695Z,5.86
2018-12-17T20:44:09.416Z,5.85
2018-12-17T20:46:38.580Z,5.88
2018-12-17T20:49:08.428Z,5.83
2018-12-17T20:51:37.705Z,5.88
2018-12-17T20:54:06.690Z,5.95
2018-12-17T20:56:35.747Z,5.90
2018-12-17T20:59:04.671Z,5.90
2018-12-17T21:01:33.660Z,5.77
2018-12-17T21:04:02.838Z,5.86
2018-12-17T21:06:31.736Z,5.74
2018-12-17T21:09:00.630Z,5.76
2018-12-17T21:11:29.564Z,5.75
2018-12-17T21:13:58.552Z,5.76
2018-12-17T21:16:27.527Z,5.84
2018-12-17T21:18:56.543Z,5.80
2018-12-17T21:21:25.749Z,5.89
2018-12-17T21:23:54.611Z,6.00
2018-12-17T21:26:23.675Z,6.00
2018-12-17T21:28:52.601Z,5.97
2018-12-17T21:31:21.918Z,5.86
2018-12-17T21:33:50.970Z,5.96
2018-12-17T21:36:20.375Z,5.94
2018-12-17T21:38:49.374Z,5.97
2018-12-17T21:41:19.475Z,6.05
2018-12-17T21:43:48.383Z,6.06
2018-12-17T21:46:17.293Z,6.05
2018-12-17T21:48:46.560Z,6.11
2018-12-17T21:51:16.238Z,6.09
2018-12-17T21:53:45.164Z,6.19
2018-12-17T21:56:14.171Z,6.05
2018-12-17T21:58:43.846Z,6.19
2018-12-17T22:01:13.338Z,6.19
2018-12-17T22:03:42.643Z,6.13
2018-12-17T22:06:11.612Z,6.10
2018-12-17T22:08:40.452Z,6.07
2018-12-17T22:11:09.411Z,6.13
2018-12-17T22:13:38.660Z,6.10
2018-12-17T22:16:07.933Z,6.17
2018-12-17T22:18:37.232Z,6.17
2018-12-17T22:21:06.770Z,6.11
2018-12-17T22:23:37.340Z,6.02
2018-12-17T22:26:06.201Z,6.07
2018-12-17T22:28:35.204Z,6.07
2018-12-17T22:31:04.203Z,6.13
2018-12-17T22:33:33.108Z,6.12
2018-12-17T22:36:02.669Z,6.07
2018-12-17T22:38:31.580Z,6.12
2018-12-17T22:41:00.895Z,6.04
2018-12-17T22:43:29.800Z,6.07
2018-12-17T22:45:58.913Z,6.13
2018-12-17T22:48:28.231Z,6.14
2018-12-17T22:50:57.370Z,6.14
2018-12-17T22:53:26.294Z,6.16
2018-12-17T22:55:56.103Z,6.17
2018-12-17T22:58:24.983Z,6.23
2018-12-17T23:00:54.174Z,6.15
2018-12-17T23:03:26.316Z,6.18
2018-12-17T23:05:54.177Z,6.20
2018-12-17T23:08:23.051Z,6.13
2018-12-17T23:11:08.651Z,6.20
2018-12-17T23:13:54.269Z,6.06
2018-12-17T23:16:40.067Z,6.09
2018-12-17T23:19:07.107Z,6.10
2018-12-17T23:21:36.175Z,6.04
2018-12-17T23:24:05.620Z,5.95
2018-12-17T23:26:34.606Z,6.04
2018-12-17T23:29:03.978Z,6.02
2018-12-17T23:31:33.603Z,6.14
2018-12-17T23:34:02.657Z,6.16
2018-12-17T23:36:31.899Z,6.21
2018-12-17T23:39:00.806Z,6.12
2018-12-17T23:41:29.879Z,6.19
2018-12-17T23:43:58.975Z,6.24
2018-12-17T23:46:27.930Z,6.26
2018-12-17T23:48:57.155Z,6.19
2018-12-17T23:51:26.210Z,6.17
2018-12-17T23:53:55.105Z,6.34
2018-12-17T23:56:24.106Z,6.36
2018-12-17T23:58:53.019Z,6.31
